createdAt,value
2022-09-25T00:01:54.878Z,13.60
2022-09-25T00:06:56.733Z,13.60
2022-09-25T00:11:58.498Z,13.60
2022-09-25T00:17:00.210Z,13.60
2022-09-25T00:22:01.862Z,13.60
2022-09-25T00:27:03.669Z,13.70
2022-09-25T00:32:07.266Z,13.70
2022-09-25T00:37:09.009Z,13.70
2022-09-25T00:42:13.449Z,13.70
2022-09-25T00:47:20.418Z,13.70
2022-09-25T00:52:24.440Z,13.70
2022-09-25T00:57:30.952Z,13.70
2022-09-25T01:02:37.317Z,13.70
2022-09-25T01:07:41.873Z,13.80
2022-09-25T01:12:46.690Z,13.70
2022-09-25T01:18:05.890Z,13.60
2022-09-25T01:23:30.303Z,13.70
2022-09-25T01:28:47.735Z,13.60
2022-09-25T01:33:58.390Z,13.60
2022-09-25T01:39:18.289Z,13.60
2022-09-25T01:44:32.238Z,13.50
2022-09-25T01:49:38.610Z,13.50
2022-09-25T01:54:51.839Z,13.50
2022-09-25T01:59:59.812Z,13.50
2022-09-25T02:05:22.618Z,13.50
2022-09-25T02:10:32.393Z,13.50
2022-09-25T02:15:39.268Z,13.50
2022-09-25T02:20:44.924Z,13.40
2022-09-25T02:26:05.323Z,13.30
2022-09-25T02:31:11.393Z,13.30
2022-09-25T02:36:19.068Z,13.40
2022-09-25T02:41:45.588Z,13.30
2022-09-25T02:47:27.170Z,13.20
2022-09-25T02:53:00.079Z,13.20
2022-09-25T02:58:21.644Z,13.10
2022-09-25T03:03:26.008Z,13.20
2022-09-25T03:08:41.468Z,13.10
2022-09-25T03:13:44.402Z,13.10
2022-09-25T03:18:47.640Z,13.10
2022-09-25T03:23:49.293Z,13.10
2022-09-25T03:28:52.002Z,13.10
2022-09-25T03:33:53.625Z,13.10
2022-09-25T03:39:00.293Z,13.10
2022-09-25T03:44:02.922Z,13.10
2022-09-25T03:49:05.235Z,13.10
2022-09-25T03:54:07.008Z,13.00
2022-09-25T03:59:08.606Z,13.10
2022-09-25T04:04:10.229Z,13.10
2022-09-25T04:09:11.973Z,13.10
2022-09-25T04:14:14.678Z,13.00
2022-09-25T04:19:16.650Z,13.00
2022-09-25T04:24:36.769Z,13.00
2022-09-25T04:29:38.485Z,13.00
2022-09-25T04:34:40.163Z,13.00
2022-09-25T04:39:42.020Z,13.00
2022-09-25T04:44:43.711Z,13.00
2022-09-25T04:49:45.327Z,12.90
2022-09-25T04:54:47.573Z,13.00
2022-09-25T04:59:50.906Z,13.00
2022-09-25T05:04:52.578Z,13.00
2022-09-25T05:09:54.242Z,13.00
2022-09-25T05:14:55.845Z,13.00
2022-09-25T05:19:59.570Z,12.90
2022-09-25T05:25:01.166Z,12.90
2022-09-25T05:30:02.878Z,13.00
2022-09-25T05:35:05.601Z,12.90
2022-09-25T05:40:07.996Z,12.80
2022-09-25T05:45:14.103Z,12.70
2022-09-25T05:50:17.110Z,12.70
2022-09-25T05:55:18.817Z,12.70
2022-09-25T06:00:20.693Z,12.70
2022-09-25T06:05:22.289Z,12.70
2022-09-25T06:10:26.044Z,12.70
2022-09-25T06:15:29.261Z,12.70
2022-09-25T06:20:31.296Z,12.70
2022-09-25T06:25:33.044Z,12.70
2022-09-25T06:30:36.495Z,12.70
2022-09-25T06:35:46.214Z,12.70
2022-09-25T06:40:47.974Z,12.70
2022-09-25T06:45:51.173Z,12.60
2022-09-25T06:50:55.246Z,12.60
2022-09-25T06:55:59.423Z,12.60
2022-09-25T07:01:03.202Z,12.60
2022-09-25T07:06:10.870Z,12.60
2022-09-25T07:11:15.597Z,12.50
2022-09-25T07:16:19.347Z,12.50
2022-09-25T07:21:24.348Z,12.50
2022-09-25T07:26:30.613Z,12.50
2022-09-25T07:31:34.410Z,12.50
2022-09-25T07:36:38.568Z,12.50
2022-09-25T07:41:40.282Z,12.50
2022-09-25T07:46:44.501Z,12.50
2022-09-25T07:51:46.548Z,12.50
2022-09-25T07:56:48.206Z,12.50
2022-09-25T08:01:53.636Z,12.50
2022-09-25T08:06:57.918Z,12.50
2022-09-25T08:11:59.622Z,12.50
2022-09-25T08:17:01.327Z,12.50
2022-09-25T08:22:03.215Z,12.50
2022-09-25T08:27:05.592Z,12.50
2022-09-25T08:32:07.381Z,12.50
2022-09-25T08:37:10.160Z,12.50
2022-09-25T08:42:20.199Z,12.50
2022-09-25T08:47:43.751Z,12.50
2022-09-25T08:52:50.001Z,12.50
2022-09-25T08:57:55.575Z,12.50
2022-09-25T09:02:59.515Z,12.50
2022-09-25T09:08:09.351Z,12.50
2022-09-25T09:13:19.094Z,12.50
2022-09-25T09:18:26.143Z,12.60
2022-09-25T09:23:34.780Z,12.60
2022-09-25T09:28:57.798Z,12.60
2022-09-25T09:34:18.513Z,12.60
2022-09-25T09:39:32.114Z,12.70
2022-09-25T09:45:00.154Z,12.70
2022-09-25T09:50:47.226Z,12.80
2022-09-25T09:55:56.684Z,12.80
2022-09-25T10:01:06.924Z,12.80
2022-09-25T10:06:21.920Z,12.90
2022-09-25T10:11:25.101Z,13.00
2022-09-25T10:16:27.255Z,13.10
2022-09-25T10:21:39.261Z,13.10
2022-09-25T10:26:41.064Z,13.20
2022-09-25T10:31:42.793Z,13.30
2022-09-25T10:36:49.624Z,13.30
2022-09-25T10:41:51.893Z,13.40
2022-09-25T10:47:12.512Z,13.40
2022-09-25T10:52:19.548Z,13.40
2022-09-25T10:57:34.511Z,13.50
2022-09-25T11:02:40.535Z,13.50
2022-09-25T11:07:52.458Z,13.60
2022-09-25T11:12:54.554Z,13.80
2022-09-25T11:17:57.278Z,13.90
2022-09-25T11:23:08.334Z,14.00
2022-09-25T11:28:28.008Z,14.00
2022-09-25T11:34:11.601Z,14.00
2022-09-25T11:39:46.416Z,14.00
2022-09-25T11:44:58.567Z,14.00
2022-09-25T11:50:02.148Z,14.10
2022-09-25T11:55:36.331Z,14.20
2022-09-25T12:00:41.026Z,14.30
2022-09-25T12:06:14.075Z,14.60
2022-09-25T12:11:37.949Z,14.60
2022-09-25T12:16:48.651Z,14.70
2022-09-25T12:22:29.364Z,14.70
2022-09-25T12:27:50.535Z,14.70
2022-09-25T12:33:02.926Z,14.60
2022-09-25T12:38:14.549Z,14.50
2022-09-25T12:43:41.230Z,14.40
2022-09-25T12:49:11.603Z,14.50
2022-09-25T12:54:16.469Z,14.60
2022-09-25T12:59:24.197Z,14.70
2022-09-25T13:04:49.920Z,14.80
2022-09-25T13:09:51.530Z,14.90
2022-09-25T13:14:59.903Z,15.00
2022-09-25T13:20:26.362Z,15.20
2022-09-25T13:25:28.862Z,15.20
2022-09-25T13:30:30.984Z,15.30
2022-09-25T13:35:33.499Z,15.40
2022-09-25T13:40:46.216Z,15.40
2022-09-25T13:45:50.304Z,15.60
2022-09-25T13:51:18.208Z,15.80
2022-09-25T13:56:28.744Z,16.00
2022-09-25T14:01:37.819Z,16.20
2022-09-25T14:06:42.002Z,16.20
2022-09-25T14:11:51.921Z,16.10
2022-09-25T14:16:58.490Z,16.10
2022-09-25T14:22:02.810Z,16.10
2022-09-25T14:27:23.419Z,16.20
2022-09-25T14:33:01.973Z,16.30
2022-09-25T14:38:21.659Z,16.30
2022-09-25T14:43:24.768Z,16.20
2022-09-25T14:48:31.961Z,16.20
2022-09-25T14:53:42.102Z,16.10
2022-09-25T14:58:50.078Z,16.10
2022-09-25T15:03:53.287Z,16.20
2022-09-25T15:08:55.287Z,16.20
2022-09-25T15:14:11.111Z,16.20
2022-09-25T15:19:33.118Z,16.20
2022-09-25T15:24:36.454Z,16.10
2022-09-25T15:29:42.639Z,16.10
2022-09-25T15:34:45.614Z,16.10
2022-09-25T15:39:47.474Z,16.00
2022-09-25T15:44:49.462Z,16.00
2022-09-25T15:49:51.163Z,16.00
2022-09-25T15:54:52.999Z,16.00
2022-09-25T16:00:13.941Z,15.90
2022-09-25T16:05:21.386Z,15.90
2022-09-25T16:10:30.519Z,15.80
2022-09-25T16:15:49.449Z,15.70
2022-09-25T16:21:12.628Z,15.70
2022-09-25T16:26:22.000Z,15.60
2022-09-25T16:31:25.002Z,15.50
2022-09-25T16:36:36.463Z,15.50
2022-09-25T16:41:40.554Z,15.40
2022-09-25T16:46:44.468Z,15.40
2022-09-25T16:51:48.320Z,15.30
2022-09-25T16:56:50.015Z,15.30
2022-09-25T17:01:55.704Z,15.20
2022-09-25T17:06:58.494Z,15.10
2022-09-25T17:12:07.229Z,15.10
2022-09-25T17:17:10.128Z,14.90
2022-09-25T17:22:11.956Z,14.80
2022-09-25T17:27:15.484Z,14.70
2022-09-25T17:32:17.483Z,14.60
2022-09-25T17:37:19.407Z,14.40
2022-09-25T17:42:21.201Z,14.30
2022-09-25T17:47:22.853Z,14.30
2022-09-25T17:52:24.558Z,14.10
2022-09-25T17:57:27.637Z,14.10
2022-09-25T18:02:29.713Z,13.90
2022-09-25T18:07:33.843Z,13.80
2022-09-25T18:12:35.720Z,13.60
2022-09-25T18:17:37.706Z,13.50
2022-09-25T18:22:39.445Z,13.50
2022-09-25T18:27:41.777Z,13.20
2022-09-25T18:32:44.284Z,13.20
2022-09-25T18:37:46.349Z,13.10
2022-09-25T18:42:48.244Z,13.00
2022-09-25T18:47:49.993Z,13.00
2022-09-25T18:52:52.572Z,13.00
2022-09-25T18:57:54.975Z,12.90
2022-09-25T19:02:56.692Z,12.90
2022-09-25T19:07:59.032Z,12.80
2022-09-25T19:13:01.145Z,12.70
2022-09-25T19:18:02.733Z,12.70
2022-09-25T19:23:05.967Z,12.50
2022-09-25T19:28:07.854Z,12.50
2022-09-25T19:33:09.549Z,12.50
2022-09-25T19:38:12.815Z,12.40
2022-09-25T19:43:17.071Z,12.30
2022-09-25T19:48:19.077Z,12.20
2022-09-25T19:53:20.888Z,12.10
2022-09-25T19:58:23.669Z,12.00
2022-09-25T20:03:25.528Z,11.90
2022-09-25T20:08:27.227Z,11.90
2022-09-25T20:13:29.054Z,11.80
2022-09-25T20:18:30.644Z,11.70
2022-09-25T20:23:32.340Z,11.60
2022-09-25T20:28:35.462Z,11.50
2022-09-25T20:33:37.856Z,11.50
2022-09-25T20:38:40.077Z,11.50
2022-09-25T20:43:44.065Z,11.50
2022-09-25T20:48:47.109Z,11.40
2022-09-25T20:53:54.059Z,11.40
2022-09-25T20:58:57.206Z,11.30
2022-09-25T21:04:00.836Z,11.20
2022-09-25T21:09:06.812Z,11.10
2022-09-25T21:14:13.806Z,11.00
2022-09-25T21:19:17.763Z,10.90
2022-09-25T21:24:21.318Z,10.80
2022-09-25T21:29:22.949Z,10.80
2022-09-25T21:34:24.609Z,10.70
2022-09-25T21:39:26.431Z,10.80
2022-09-25T21:44:28.061Z,10.80
2022-09-25T21:49:29.755Z,10.80
2022-09-25T21:54:31.582Z,10.60
2022-09-25T21:59:33.265Z,10.60
2022-09-25T22:04:35.045Z,10.60
2022-09-25T22:09:36.870Z,10.60
2022-09-25T22:14:39.585Z,10.60
2022-09-25T22:19:41.324Z,10.60
2022-09-25T22:24:42.961Z,10.50
2022-09-25T22:29:44.636Z,10.40
2022-09-25T22:34:46.376Z,10.30
2022-09-25T22:39:48.018Z,10.20
2022-09-25T22:44:49.753Z,10.20
2022-09-25T22:49:51.513Z,10.10
2022-09-25T22:54:53.229Z,10.10
2022-09-25T22:59:54.938Z,10.00
2022-09-25T23:04:57.058Z,10.00
2022-09-25T23:09:58.893Z,10.00
2022-09-25T23:15:00.644Z,10.10
2022-09-25T23:20:02.337Z,10.10
2022-09-25T23:25:04.733Z,10.00
2022-09-25T23:30:06.911Z,9.90
2022-09-25T23:35:09.120Z,9.90
2022-09-25T23:40:15.366Z,9.90
2022-09-25T23:45:17.533Z,9.90
2022-09-25T23:50:19.216Z,9.90
2022-09-25T23:55:20.861Z,9.90
